Georg Jacob — A8XG5 — position and weather

sailwx.info

Track history (hours):
 
Tides and Currents Weather Stations Pressure Air Temp Water Temp Dewpoint Dewpoint Depression Visibility Wind Speed Wind Dir Waves Ship Positions

Georg Jacob

Last reported at 2016-Apr-15 09:06 UTC. Time now 2016-May-01 04:13 UTC.
Position N 02°17' E 101°53'.
Warning: this ship's position is 15 days out of date.

Length 229 m; draft 8.5 m.

Type: Tanker. MMSI: 636092136.

Date/timePositionNaut miles runAvg speedWind from/ knotsBaromVisibWave heightAir tempDewpointWater temp
2016-Apr-15 09:06N 02°17' E 101°53'611.6
2016-Apr-15 08:33N 02°13' E 101°57'2611.5
2016-Apr-15 06:16N 01°56' E 102°18'811.7
2016-Apr-15 05:33N 01°53' E 102°26'1312.0
2016-Apr-15 04:30N 01°47' E 102°37'1312.3
2016-Apr-15 03:27N 01°42' E 102°49'4812.2
2016-Apr-14 23:30N 01°13' E 103°28'1111.5
2016-Apr-14 22:33N 01°11' E 103°38'10 9.6
2016-Apr-14 21:33N 01°10' E 103°48'1110.8
2016-Apr-14 20:33N 01°15' E 103°57'1 1.4
2016-Apr-14 19:30N 01°17' E 103°58'0 0.1
2016-Apr-14 18:27N 01°17' E 103°58'0 0.0
2016-Apr-14 17:33N 01°17' E 103°58'0 0.0
2016-Apr-14 16:27N 01°17' E 103°58'0 0.0
2016-Apr-14 15:33N 01°17' E 103°58'0 0.0
2016-Apr-14 14:33N 01°17' E 103°58'0 0.1
2016-Apr-14 13:27N 01°17' E 103°58'0 0.1
2016-Apr-14 12:12N 01°17' E 103°58'0 0.1
2016-Apr-14 11:33N 01°17' E 103°58'0 0.1
2016-Apr-14 10:33N 01°17' E 103°58'0 0.1
2016-Apr-14 09:33N 01°17' E 103°58'0 0.0
2016-Apr-14 08:33N 01°17' E 103°58'0 0.1
2016-Apr-14 07:15N 01°17' E 103°58'0 0.0
2016-Apr-14 06:33N 01°17' E 103°58'0 0.0
2016-Apr-14 05:33N 01°17' E 103°58'0 0.0
2016-Apr-14 04:33N 01°17' E 103°58'1 1.4
2016-Apr-14 03:33N 01°16' E 103°59'4 4.4
2016-Apr-14 02:33N 01°16' E 104°04'8 7.5
2016-Apr-14 01:26N 01°17' E 104°12'  
2016-Apr-09 02:32N 22°31' E 120°07'12 0.3
2016-Apr-07 08:26N 22°33' E 120°20'5 5.1
2016-Apr-07 07:33N 22°32' E 120°15'2 2.1
2016-Apr-07 06:33N 22°30' E 120°15'0 0.0
2016-Apr-07 04:33N 22°30' E 120°15'0 0.0
2016-Apr-07 03:33N 22°30' E 120°15'0 0.0
2016-Apr-07 02:33N 22°30' E 120°15'0 0.0
2016-Apr-07 01:33N 22°30' E 120°15'0 0.1
2016-Apr-07 00:33N 22°30' E 120°15'0 0.1
2016-Apr-06 23:33N 22°30' E 120°15'0 0.1
2016-Apr-06 22:33N 22°30' E 120°15'0 0.0
2016-Apr-06 21:27N 22°30' E 120°15'0 0.0
2016-Apr-06 20:33N 22°30' E 120°15'0 0.0
2016-Apr-06 19:33N 22°30' E 120°15'0 0.1
2016-Apr-06 18:33N 22°30' E 120°15'0 0.1
2016-Apr-06 17:33N 22°30' E 120°15'0 0.0
2016-Apr-06 16:27N 22°30' E 120°15'0 0.1
2016-Apr-06 15:33N 22°30' E 120°15'0 0.0
2016-Apr-06 14:33N 22°30' E 120°15'0 0.0
2016-Apr-06 13:33N 22°30' E 120°15'0 0.1
2016-Apr-06 12:33N 22°30' E 120°15'0 0.0
2016-Apr-06 11:33N 22°30' E 120°15'0 0.0
2016-Apr-06 10:33N 22°30' E 120°15'0 0.0
2016-Apr-06 09:33N 22°30' E 120°15'0 0.1
2016-Apr-06 08:33N 22°30' E 120°15'0 0.0
2016-Apr-06 07:33N 22°30' E 120°15'0 0.0
2016-Apr-06 06:33N 22°30' E 120°15'0 0.0
2016-Apr-06 05:33N 22°30' E 120°15'0 0.0
2016-Apr-06 04:33N 22°30' E 120°15'0 0.0
2016-Apr-06 03:33N 22°30' E 120°15'0 0.1
2016-Apr-06 02:33N 22°30' E 120°15'0 0.1
2016-Apr-06 01:33N 22°30' E 120°15'0 0.0
2016-Apr-06 00:21N 22°30' E 120°15'0 0.0
2016-Apr-05 23:33N 22°30' E 120°15'0 0.1
2016-Apr-05 22:33N 22°30' E 120°15'0 0.1
2016-Apr-05 21:33N 22°30' E 120°15'0 0.0
2016-Apr-05 20:33N 22°30' E 120°15'0 0.1
2016-Apr-05 19:33N 22°30' E 120°15'0 0.0
2016-Apr-05 18:33N 22°30' E 120°15'0 0.1
2016-Apr-05 17:33N 22°30' E 120°15'0 0.0
2016-Apr-05 16:21N 22°30' E 120°15'0 0.1
2016-Apr-05 15:33N 22°30' E 120°15'0 0.0
2016-Apr-05 14:33N 22°30' E 120°15'0 0.0
2016-Apr-05 13:33N 22°30' E 120°15'0 0.1
2016-Apr-05 12:33N 22°30' E 120°15'0 0.1
2016-Apr-05 11:33N 22°30' E 120°15'0 0.0
2016-Apr-05 10:33N 22°30' E 120°15'0 0.0
2016-Apr-05 09:27N 22°30' E 120°15'  
Track history (hours):
 
Tides and Currents Weather Stations Pressure Air Temp Water Temp Dewpoint Dewpoint Depression Visibility Wind Speed Wind Dir Waves Ship Positions

Georg Jacob

Last reported at 2016-Apr-15 09:06 UTC. Time now 2016-May-01 04:13 UTC.
Position N 02°17' E 101°53'.
Warning: this ship's position is 15 days out of date.

Length 229 m; draft 8.5 m.

Type: Tanker. MMSI: 636092136.

Date/timePositionNaut miles runAvg speedWind from/ knotsBaromVisibWave heightAir tempDewpointWater temp
2016-Apr-15 09:06N 02°17' E 101°53'611.6
2016-Apr-15 08:33N 02°13' E 101°57'2611.5
2016-Apr-15 06:16N 01°56' E 102°18'811.7
2016-Apr-15 05:33N 01°53' E 102°26'1312.0
2016-Apr-15 04:30N 01°47' E 102°37'1312.3
2016-Apr-15 03:27N 01°42' E 102°49'4812.2
2016-Apr-14 23:30N 01°13' E 103°28'1111.5
2016-Apr-14 22:33N 01°11' E 103°38'10 9.6
2016-Apr-14 21:33N 01°10' E 103°48'1110.8
2016-Apr-14 20:33N 01°15' E 103°57'1 1.4
2016-Apr-14 19:30N 01°17' E 103°58'0 0.1
2016-Apr-14 18:27N 01°17' E 103°58'0 0.0
2016-Apr-14 17:33N 01°17' E 103°58'0 0.0
2016-Apr-14 16:27N 01°17' E 103°58'0 0.0
2016-Apr-14 15:33N 01°17' E 103°58'0 0.0
2016-Apr-14 14:33N 01°17' E 103°58'0 0.1
2016-Apr-14 13:27N 01°17' E 103°58'0 0.1
2016-Apr-14 12:12N 01°17' E 103°58'0 0.1
2016-Apr-14 11:33N 01°17' E 103°58'0 0.1
2016-Apr-14 10:33N 01°17' E 103°58'0 0.1
2016-Apr-14 09:33N 01°17' E 103°58'0 0.0
2016-Apr-14 08:33N 01°17' E 103°58'0 0.1
2016-Apr-14 07:15N 01°17' E 103°58'0 0.0
2016-Apr-14 06:33N 01°17' E 103°58'0 0.0
2016-Apr-14 05:33N 01°17' E 103°58'0 0.0
2016-Apr-14 04:33N 01°17' E 103°58'1 1.4
2016-Apr-14 03:33N 01°16' E 103°59'4 4.4
2016-Apr-14 02:33N 01°16' E 104°04'8 7.5
2016-Apr-14 01:26N 01°17' E 104°12'  
2016-Apr-09 02:32N 22°31' E 120°07'12 0.3
2016-Apr-07 08:26N 22°33' E 120°20'5 5.1
2016-Apr-07 07:33N 22°32' E 120°15'2 2.1
2016-Apr-07 06:33N 22°30' E 120°15'0 0.0
2016-Apr-07 04:33N 22°30' E 120°15'0 0.0
2016-Apr-07 03:33N 22°30' E 120°15'0 0.0
2016-Apr-07 02:33N 22°30' E 120°15'0 0.0
2016-Apr-07 01:33N 22°30' E 120°15'0 0.1
2016-Apr-07 00:33N 22°30' E 120°15'0 0.1
2016-Apr-06 23:33N 22°30' E 120°15'0 0.1
2016-Apr-06 22:33N 22°30' E 120°15'0 0.0
2016-Apr-06 21:27N 22°30' E 120°15'0 0.0
2016-Apr-06 20:33N 22°30' E 120°15'0 0.0
2016-Apr-06 19:33N 22°30' E 120°15'0 0.1
2016-Apr-06 18:33N 22°30' E 120°15'0 0.1
2016-Apr-06 17:33N 22°30' E 120°15'0 0.0
2016-Apr-06 16:27N 22°30' E 120°15'0 0.1
2016-Apr-06 15:33N 22°30' E 120°15'0 0.0
2016-Apr-06 14:33N 22°30' E 120°15'0 0.0
2016-Apr-06 13:33N 22°30' E 120°15'0 0.1
2016-Apr-06 12:33N 22°30' E 120°15'0 0.0
2016-Apr-06 11:33N 22°30' E 120°15'0 0.0
2016-Apr-06 10:33N 22°30' E 120°15'0 0.0
2016-Apr-06 09:33N 22°30' E 120°15'0 0.1
2016-Apr-06 08:33N 22°30' E 120°15'0 0.0
2016-Apr-06 07:33N 22°30' E 120°15'0 0.0
2016-Apr-06 06:33N 22°30' E 120°15'0 0.0
2016-Apr-06 05:33N 22°30' E 120°15'0 0.0
2016-Apr-06 04:33N 22°30' E 120°15'0 0.0
2016-Apr-06 03:33N 22°30' E 120°15'0 0.1
2016-Apr-06 02:33N 22°30' E 120°15'0 0.1
2016-Apr-06 01:33N 22°30' E 120°15'0 0.0
2016-Apr-06 00:21N 22°30' E 120°15'0 0.0
2016-Apr-05 23:33N 22°30' E 120°15'0 0.1
2016-Apr-05 22:33N 22°30' E 120°15'0 0.1
2016-Apr-05 21:33N 22°30' E 120°15'0 0.0
2016-Apr-05 20:33N 22°30' E 120°15'0 0.1
2016-Apr-05 19:33N 22°30' E 120°15'0 0.0
2016-Apr-05 18:33N 22°30' E 120°15'0 0.1
2016-Apr-05 17:33N 22°30' E 120°15'0 0.0
2016-Apr-05 16:21N 22°30' E 120°15'0 0.1
2016-Apr-05 15:33N 22°30' E 120°15'0 0.0
2016-Apr-05 14:33N 22°30' E 120°15'0 0.0
2016-Apr-05 13:33N 22°30' E 120°15'0 0.1
2016-Apr-05 12:33N 22°30' E 120°15'0 0.1
2016-Apr-05 11:33N 22°30' E 120°15'0 0.0
2016-Apr-05 10:33N 22°30' E 120°15'0 0.0
2016-Apr-05 09:27N 22°30' E 120°15'  

Dump ship's entire track history